sensor_id;sensor_type;location;lat;lon;timestamp;P1;durP1;ratioP1;P2;durP2;ratioP2
24439;SDS011;12618;54.386;18.394;2023-05-29T00:01:09;8.70;;;4.60;;
24439;SDS011;12618;54.386;18.394;2023-05-29T00:03:41;10.00;;;4.80;;
24439;SDS011;12618;54.386;18.394;2023-05-29T00:06:14;9.60;;;4.90;;
24439;SDS011;12618;54.386;18.394;2023-05-29T00:08:46;9.40;;;5.10;;
24439;SDS011;12618;54.386;18.394;2023-05-29T00:11:17;10.20;;;5.00;;
24439;SDS011;12618;54.386;18.394;2023-05-29T00:13:49;8.60;;;5.10;;
24439;SDS011;12618;54.386;18.394;2023-05-29T00:16:21;11.60;;;5.80;;
24439;SDS011;12618;54.386;18.394;2023-05-29T00:18:54;10.20;;;5.60;;
24439;SDS011;12618;54.386;18.394;2023-05-29T00:21:26;14.10;;;5.50;;
24439;SDS011;12618;54.386;18.394;2023-05-29T00:23:59;11.50;;;5.90;;
24439;SDS011;12618;54.386;18.394;2023-05-29T00:26:31;7.60;;;5.20;;
24439;SDS011;12618;54.386;18.394;2023-05-29T00:29:02;12.30;;;5.60;;
24439;SDS011;12618;54.386;18.394;2023-05-29T00:31:34;10.60;;;5.20;;
24439;SDS011;12618;54.386;18.394;2023-05-29T00:34:07;10.90;;;5.70;;
24439;SDS011;12618;54.386;18.394;2023-05-29T00:36:38;9.90;;;5.30;;
24439;SDS011;12618;54.386;18.394;2023-05-29T00:39:11;10.10;;;5.10;;
24439;SDS011;12618;54.386;18.394;2023-05-29T00:41:43;9.90;;;5.20;;
24439;SDS011;12618;54.386;18.394;2023-05-29T00:44:15;12.30;;;5.60;;
24439;SDS011;12618;54.386;18.394;2023-05-29T00:46:51;11.10;;;5.50;;
24439;SDS011;12618;54.386;18.394;2023-05-29T00:49:26;12.30;;;5.30;;
24439;SDS011;12618;54.386;18.394;2023-05-29T00:51:58;8.60;;;4.80;;
24439;SDS011;12618;54.386;18.394;2023-05-29T00:54:30;10.90;;;5.30;;
24439;SDS011;12618;54.386;18.394;2023-05-29T00:57:05;11.40;;;4.80;;
24439;SDS011;12618;54.386;18.394;2023-05-29T00:59:37;11.50;;;5.60;;
24439;SDS011;12618;54.386;18.394;2023-05-29T01:02:09;11.70;;;5.80;;
24439;SDS011;12618;54.386;18.394;2023-05-29T01:04:41;10.60;;;5.20;;
24439;SDS011;12618;54.386;18.394;2023-05-29T01:07:14;9.50;;;4.80;;
24439;SDS011;12618;54.386;18.394;2023-05-29T01:09:46;10.80;;;5.40;;
24439;SDS011;12618;54.386;18.394;2023-05-29T01:15:41;9.00;;;4.80;;
24439;SDS011;12618;54.386;18.394;2023-05-29T01:18:28;11.00;;;5.50;;
24439;SDS011;12618;54.386;18.394;2023-05-29T01:21:22;12.70;;;5.30;;
24439;SDS011;12618;54.386;18.394;2023-05-29T01:24:21;10.10;;;5.60;;
24439;SDS011;12618;54.386;18.394;2023-05-29T01:27:00;9.80;;;5.30;;
24439;SDS011;12618;54.386;18.394;2023-05-29T01:29:35;13.50;;;5.50;;
24439;SDS011;12618;54.386;18.394;2023-05-29T01:32:10;11.20;;;5.20;;
24439;SDS011;12618;54.386;18.394;2023-05-29T01:34:42;8.70;;;5.30;;
24439;SDS011;12618;54.386;18.394;2023-05-29T01:37:14;11.40;;;5.50;;
24439;SDS011;12618;54.386;18.394;2023-05-29T01:39:45;13.10;;;6.00;;
24439;SDS011;12618;54.386;18.394;2023-05-29T01:42:17;11.10;;;5.70;;
24439;SDS011;12618;54.386;18.394;2023-05-29T01:44:49;10.20;;;5.50;;
24439;SDS011;12618;54.386;18.394;2023-05-29T01:47:21;12.20;;;5.90;;
24439;SDS011;12618;54.386;18.394;2023-05-29T01:49:53;12.30;;;5.60;;
24439;SDS011;12618;54.386;18.394;2023-05-29T01:52:26;13.50;;;6.20;;
24439;SDS011;12618;54.386;18.394;2023-05-29T01:54:57;9.30;;;5.50;;
24439;SDS011;12618;54.386;18.394;2023-05-29T01:57:29;12.60;;;6.10;;
24439;SDS011;12618;54.386;18.394;2023-05-29T02:00:02;12.80;;;5.90;;
24439;SDS011;12618;54.386;18.394;2023-05-29T02:02:40;9.60;;;5.30;;
24439;SDS011;12618;54.386;18.394;2023-05-29T02:05:13;10.80;;;5.50;;
24439;SDS011;12618;54.386;18.394;2023-05-29T02:07:44;9.40;;;5.60;;
24439;SDS011;12618;54.386;18.394;2023-05-29T02:10:16;9.40;;;5.70;;
24439;SDS011;12618;54.386;18.394;2023-05-29T02:12:48;10.10;;;5.50;;
24439;SDS011;12618;54.386;18.394;2023-05-29T02:15:20;9.60;;;5.40;;
24439;SDS011;12618;54.386;18.394;2023-05-29T02:17:52;11.50;;;5.60;;
24439;SDS011;12618;54.386;18.394;2023-05-29T02:20:24;10.30;;;5.60;;
24439;SDS011;12618;54.386;18.394;2023-05-29T02:22:56;8.50;;;5.60;;
24439;SDS011;12618;54.386;18.394;2023-05-29T02:25:27;10.80;;;6.10;;
24439;SDS011;12618;54.386;18.394;2023-05-29T02:27:59;11.20;;;6.00;;
24439;SDS011;12618;54.386;18.394;2023-05-29T02:30:31;11.90;;;6.60;;
24439;SDS011;12618;54.386;18.394;2023-05-29T02:33:02;10.00;;;5.70;;
24439;SDS011;12618;54.386;18.394;2023-05-29T02:35:34;10.90;;;5.60;;
24439;SDS011;12618;54.386;18.394;2023-05-29T02:38:06;12.50;;;6.00;;
24439;SDS011;12618;54.386;18.394;2023-05-29T02:40:38;10.10;;;6.10;;
24439;SDS011;12618;54.386;18.394;2023-05-29T02:43:12;14.20;;;6.70;;
24439;SDS011;12618;54.386;18.394;2023-05-29T02:45:44;11.30;;;6.10;;
24439;SDS011;12618;54.386;18.394;2023-05-29T02:48:16;11.50;;;6.40;;
24439;SDS011;12618;54.386;18.394;2023-05-29T02:50:48;10.90;;;6.40;;
24439;SDS011;12618;54.386;18.394;2023-05-29T02:53:19;11.70;;;6.60;;
24439;SDS011;12618;54.386;18.394;2023-05-29T02:55:51;12.70;;;6.90;;
24439;SDS011;12618;54.386;18.394;2023-05-29T02:58:23;11.20;;;6.30;;
24439;SDS011;12618;54.386;18.394;2023-05-29T03:00:55;10.80;;;6.80;;
24439;SDS011;12618;54.386;18.394;2023-05-29T03:03:27;11.40;;;6.90;;
24439;SDS011;12618;54.386;18.394;2023-05-29T03:05:59;10.80;;;5.90;;
24439;SDS011;12618;54.386;18.394;2023-05-29T03:08:31;11.90;;;6.70;;
24439;SDS011;12618;54.386;18.394;2023-05-29T03:11:05;13.60;;;6.20;;
24439;SDS011;12618;54.386;18.394;2023-05-29T03:13:42;17.80;;;6.60;;
24439;SDS011;12618;54.386;18.394;2023-05-29T03:16:13;12.50;;;6.60;;
24439;SDS011;12618;54.386;18.394;2023-05-29T03:18:45;14.10;;;6.70;;
24439;SDS011;12618;54.386;18.394;2023-05-29T03:21:17;11.00;;;7.00;;
24439;SDS011;12618;54.386;18.394;2023-05-29T03:23:49;11.40;;;6.70;;
24439;SDS011;12618;54.386;18.394;2023-05-29T03:26:21;15.90;;;6.70;;
24439;SDS011;12618;54.386;18.394;2023-05-29T03:28:52;10.20;;;6.60;;
24439;SDS011;12618;54.386;18.394;2023-05-29T03:31:24;11.80;;;6.30;;
24439;SDS011;12618;54.386;18.394;2023-05-29T03:33:56;11.10;;;6.50;;
24439;SDS011;12618;54.386;18.394;2023-05-29T03:36:27;11.40;;;6.90;;
24439;SDS011;12618;54.386;18.394;2023-05-29T03:38:59;14.20;;;6.30;;
24439;SDS011;12618;54.386;18.394;2023-05-29T03:41:31;10.80;;;6.00;;
24439;SDS011;12618;54.386;18.394;2023-05-29T03:44:03;9.20;;;6.20;;
24439;SDS011;12618;54.386;18.394;2023-05-29T03:46:35;10.30;;;6.50;;
24439;SDS011;12618;54.386;18.394;2023-05-29T03:49:06;10.60;;;6.00;;
24439;SDS011;12618;54.386;18.394;2023-05-29T03:51:38;16.10;;;5.90;;
24439;SDS011;12618;54.386;18.394;2023-05-29T03:54:10;10.80;;;5.80;;
24439;SDS011;12618;54.386;18.394;2023-05-29T03:56:42;13.00;;;5.70;;
24439;SDS011;12618;54.386;18.394;2023-05-29T03:59:14;10.20;;;5.50;;
24439;SDS011;12618;54.386;18.394;2023-05-29T04:01:47;11.10;;;5.40;;
24439;SDS011;12618;54.386;18.394;2023-05-29T04:04:19;10.10;;;5.30;;
24439;SDS011;12618;54.386;18.394;2023-05-29T04:06:51;16.10;;;5.40;;
24439;SDS011;12618;54.386;18.394;2023-05-29T04:09:22;10.60;;;5.70;;
24439;SDS011;12618;54.386;18.394;2023-05-29T04:11:54;17.20;;;5.40;;
24439;SDS011;12618;54.386;18.394;2023-05-29T04:14:26;11.70;;;5.10;;
24439;SDS011;12618;54.386;18.394;2023-05-29T04:16:58;24.50;;;5.70;;
24439;SDS011;12618;54.386;18.394;2023-05-29T04:19:29;9.10;;;5.10;;
24439;SDS011;12618;54.386;18.394;2023-05-29T04:22:01;11.20;;;5.70;;
24439;SDS011;12618;54.386;18.394;2023-05-29T04:24:33;12.10;;;4.90;;
24439;SDS011;12618;54.386;18.394;2023-05-29T04:27:08;10.90;;;5.00;;
24439;SDS011;12618;54.386;18.394;2023-05-29T04:29:44;10.00;;;4.60;;
24439;SDS011;12618;54.386;18.394;2023-05-29T04:32:16;11.60;;;5.00;;
24439;SDS011;12618;54.386;18.394;2023-05-29T04:34:48;8.40;;;3.80;;
24439;SDS011;12618;54.386;18.394;2023-05-29T04:37:20;10.70;;;4.10;;
24439;SDS011;12618;54.386;18.394;2023-05-29T04:40:00;8.60;;;3.80;;
24439;SDS011;12618;54.386;18.394;2023-05-29T04:42:39;8.10;;;3.70;;
24439;SDS011;12618;54.386;18.394;2023-05-29T04:45:13;11.30;;;4.10;;
24439;SDS011;12618;54.386;18.394;2023-05-29T04:47:45;9.20;;;3.70;;
24439;SDS011;12618;54.386;18.394;2023-05-29T04:50:17;9.90;;;3.30;;
24439;SDS011;12618;54.386;18.394;2023-05-29T04:52:49;13.40;;;3.70;;
24439;SDS011;12618;54.386;18.394;2023-05-29T04:55:22;14.60;;;3.40;;
24439;SDS011;12618;54.386;18.394;2023-05-29T04:57:54;8.90;;;3.40;;
24439;SDS011;12618;54.386;18.394;2023-05-29T05:00:26;6.50;;;2.80;;
24439;SDS011;12618;54.386;18.394;2023-05-29T05:02:58;9.00;;;2.90;;
24439;SDS011;12618;54.386;18.394;2023-05-29T05:05:29;9.50;;;3.40;;
24439;SDS011;12618;54.386;18.394;2023-05-29T05:08:02;16.40;;;3.50;;
24439;SDS011;12618;54.386;18.394;2023-05-29T05:10:34;9.40;;;3.40;;
24439;SDS011;12618;54.386;18.394;2023-05-29T05:13:06;8.90;;;3.40;;
24439;SDS011;12618;54.386;18.394;2023-05-29T05:15:38;9.00;;;3.10;;
24439;SDS011;12618;54.386;18.394;2023-05-29T05:18:10;11.80;;;3.30;;
24439;SDS011;12618;54.386;18.394;2023-05-29T05:20:42;14.00;;;3.10;;
24439;SDS011;12618;54.386;18.394;2023-05-29T05:23:13;12.20;;;3.20;;
24439;SDS011;12618;54.386;18.394;2023-05-29T05:25:45;12.20;;;3.40;;
24439;SDS011;12618;54.386;18.394;2023-05-29T05:28:17;8.10;;;3.10;;
24439;SDS011;12618;54.386;18.394;2023-05-29T05:30:48;10.80;;;3.20;;
24439;SDS011;12618;54.386;18.394;2023-05-29T05:33:20;14.40;;;3.60;;
24439;SDS011;12618;54.386;18.394;2023-05-29T05:35:52;11.50;;;3.40;;
24439;SDS011;12618;54.386;18.394;2023-05-29T05:38:23;13.60;;;3.30;;
24439;SDS011;12618;54.386;18.394;2023-05-29T05:40:55;16.20;;;3.00;;
24439;SDS011;12618;54.386;18.394;2023-05-29T05:43:27;10.40;;;2.70;;
24439;SDS011;12618;54.386;18.394;2023-05-29T05:46:00;9.80;;;2.90;;
24439;SDS011;12618;54.386;18.394;2023-05-29T05:48:32;11.40;;;2.80;;
24439;SDS011;12618;54.386;18.394;2023-05-29T05:51:03;12.10;;;2.90;;
24439;SDS011;12618;54.386;18.394;2023-05-29T05:53:35;10.20;;;2.90;;
24439;SDS011;12618;54.386;18.394;2023-05-29T05:56:07;15.90;;;2.70;;
24439;SDS011;12618;54.386;18.394;2023-05-29T05:58:38;10.30;;;3.00;;
24439;SDS011;12618;54.386;18.394;2023-05-29T06:01:10;12.60;;;3.20;;
24439;SDS011;12618;54.386;18.394;2023-05-29T06:03:42;12.80;;;3.20;;
24439;SDS011;12618;54.386;18.394;2023-05-29T06:06:14;12.40;;;2.70;;
24439;SDS011;12618;54.386;18.394;2023-05-29T06:08:46;9.60;;;2.20;;
24439;SDS011;12618;54.386;18.394;2023-05-29T06:11:18;8.60;;;2.30;;
24439;SDS011;12618;54.386;18.394;2023-05-29T06:13:50;6.30;;;2.20;;
24439;SDS011;12618;54.386;18.394;2023-05-29T06:16:22;15.00;;;2.80;;
24439;SDS011;12618;54.386;18.394;2023-05-29T06:18:54;10.40;;;2.60;;
24439;SDS011;12618;54.386;18.394;2023-05-29T06:21:26;12.30;;;2.90;;
24439;SDS011;12618;54.386;18.394;2023-05-29T06:23:58;7.60;;;2.20;;
24439;SDS011;12618;54.386;18.394;2023-05-29T06:26:29;9.40;;;2.30;;
24439;SDS011;12618;54.386;18.394;2023-05-29T06:29:01;7.10;;;2.20;;
24439;SDS011;12618;54.386;18.394;2023-05-29T06:31:33;10.20;;;2.40;;
24439;SDS011;12618;54.386;18.394;2023-05-29T06:34:05;14.20;;;2.50;;
24439;SDS011;12618;54.386;18.394;2023-05-29T06:36:37;29.40;;;4.00;;
24439;SDS011;12618;54.386;18.394;2023-05-29T06:39:09;8.40;;;2.20;;
24439;SDS011;12618;54.386;18.394;2023-05-29T06:41:42;8.30;;;2.10;;
24439;SDS011;12618;54.386;18.394;2023-05-29T06:44:13;9.20;;;2.20;;
24439;SDS011;12618;54.386;18.394;2023-05-29T06:46:45;6.30;;;2.10;;
24439;SDS011;12618;54.386;18.394;2023-05-29T06:49:16;8.20;;;2.50;;
24439;SDS011;12618;54.386;18.394;2023-05-29T06:51:48;7.30;;;2.00;;
24439;SDS011;12618;54.386;18.394;2023-05-29T06:54:20;7.30;;;2.50;;
24439;SDS011;12618;54.386;18.394;2023-05-29T06:56:51;8.00;;;2.30;;
24439;SDS011;12618;54.386;18.394;2023-05-29T06:59:39;11.70;;;2.00;;
24439;SDS011;12618;54.386;18.394;2023-05-29T07:02:11;6.40;;;1.90;;
24439;SDS011;12618;54.386;18.394;2023-05-29T07:04:43;5.90;;;1.90;;
24439;SDS011;12618;54.386;18.394;2023-05-29T07:07:16;6.30;;;1.90;;
24439;SDS011;12618;54.386;18.394;2023-05-29T07:09:47;7.60;;;2.10;;
24439;SDS011;12618;54.386;18.394;2023-05-29T07:12:19;6.60;;;1.80;;
24439;SDS011;12618;54.386;18.394;2023-05-29T07:14:51;7.50;;;2.10;;
24439;SDS011;12618;54.386;18.394;2023-05-29T07:17:23;9.30;;;2.10;;
24439;SDS011;12618;54.386;18.394;2023-05-29T07:19:54;7.80;;;2.10;;
24439;SDS011;12618;54.386;18.394;2023-05-29T07:22:29;10.20;;;2.10;;
24439;SDS011;12618;54.386;18.394;2023-05-29T07:25:01;4.60;;;1.80;;
24439;SDS011;12618;54.386;18.394;2023-05-29T07:30:07;5.70;;;2.00;;
24439;SDS011;12618;54.386;18.394;2023-05-29T07:32:39;8.90;;;2.20;;
24439;SDS011;12618;54.386;18.394;2023-05-29T07:35:11;10.00;;;2.20;;
24439;SDS011;12618;54.386;18.394;2023-05-29T07:37:43;7.80;;;2.10;;
24439;SDS011;12618;54.386;18.394;2023-05-29T07:40:14;17.70;;;2.70;;
24439;SDS011;12618;54.386;18.394;2023-05-29T07:42:46;6.70;;;1.90;;
24439;SDS011;12618;54.386;18.394;2023-05-29T07:45:18;4.60;;;1.90;;
24439;SDS011;12618;54.386;18.394;2023-05-29T07:47:50;7.60;;;1.80;;
24439;SDS011;12618;54.386;18.394;2023-05-29T07:50:21;6.80;;;2.10;;
24439;SDS011;12618;54.386;18.394;2023-05-29T07:52:53;8.10;;;2.00;;
24439;SDS011;12618;54.386;18.394;2023-05-29T07:55:27;7.00;;;1.80;;
24439;SDS011;12618;54.386;18.394;2023-05-29T07:57:58;3.60;;;1.70;;
24439;SDS011;12618;54.386;18.394;2023-05-29T08:00:31;7.00;;;2.10;;
24439;SDS011;12618;54.386;18.394;2023-05-29T08:03:03;9.70;;;2.20;;
24439;SDS011;12618;54.386;18.394;2023-05-29T08:05:35;9.20;;;2.00;;
24439;SDS011;12618;54.386;18.394;2023-05-29T08:08:06;28.20;;;3.00;;
24439;SDS011;12618;54.386;18.394;2023-05-29T08:10:38;11.70;;;2.20;;
24439;SDS011;12618;54.386;18.394;2023-05-29T08:13:10;9.20;;;2.00;;
24439;SDS011;12618;54.386;18.394;2023-05-29T08:15:42;6.50;;;2.00;;
24439;SDS011;12618;54.386;18.394;2023-05-29T08:18:14;6.40;;;1.90;;
24439;SDS011;12618;54.386;18.394;2023-05-29T08:20:46;9.90;;;1.60;;
24439;SDS011;12618;54.386;18.394;2023-05-29T08:23:18;6.90;;;1.70;;
24439;SDS011;12618;54.386;18.394;2023-05-29T08:25:49;7.10;;;1.90;;
24439;SDS011;12618;54.386;18.394;2023-05-29T08:28:21;8.30;;;2.00;;
24439;SDS011;12618;54.386;18.394;2023-05-29T08:30:53;12.40;;;2.20;;
24439;SDS011;12618;54.386;18.394;2023-05-29T08:33:26;5.60;;;2.20;;
24439;SDS011;12618;54.386;18.394;2023-05-29T08:35:58;6.60;;;1.80;;
24439;SDS011;12618;54.386;18.394;2023-05-29T08:38:30;4.20;;;1.90;;
24439;SDS011;12618;54.386;18.394;2023-05-29T08:41:01;8.90;;;1.90;;
24439;SDS011;12618;54.386;18.394;2023-05-29T08:43:33;6.50;;;1.70;;
24439;SDS011;12618;54.386;18.394;2023-05-29T08:46:06;9.90;;;1.90;;
24439;SDS011;12618;54.386;18.394;2023-05-29T08:48:39;5.20;;;1.70;;
24439;SDS011;12618;54.386;18.394;2023-05-29T08:51:14;3.60;;;1.50;;
24439;SDS011;12618;54.386;18.394;2023-05-29T08:56:18;7.40;;;1.80;;
24439;SDS011;12618;54.386;18.394;2023-05-29T08:59:05;6.70;;;1.50;;
24439;SDS011;12618;54.386;18.394;2023-05-29T09:01:38;4.40;;;1.50;;
24439;SDS011;12618;54.386;18.394;2023-05-29T09:04:11;6.70;;;1.70;;
24439;SDS011;12618;54.386;18.394;2023-05-29T09:06:44;6.20;;;1.50;;
24439;SDS011;12618;54.386;18.394;2023-05-29T09:09:16;5.20;;;1.50;;
24439;SDS011;12618;54.386;18.394;2023-05-29T09:11:47;5.00;;;1.50;;
24439;SDS011;12618;54.386;18.394;2023-05-29T09:17:07;8.10;;;1.70;;
24439;SDS011;12618;54.386;18.394;2023-05-29T09:19:41;4.40;;;1.50;;
24439;SDS011;12618;54.386;18.394;2023-05-29T09:22:13;4.40;;;1.50;;
24439;SDS011;12618;54.386;18.394;2023-05-29T09:24:48;9.50;;;1.80;;
24439;SDS011;12618;54.386;18.394;2023-05-29T09:29:53;3.00;;;1.40;;
24439;SDS011;12618;54.386;18.394;2023-05-29T09:32:25;4.70;;;1.50;;
24439;SDS011;12618;54.386;18.394;2023-05-29T09:35:05;4.30;;;1.30;;
24439;SDS011;12618;54.386;18.394;2023-05-29T09:40:12;4.90;;;1.10;;
24439;SDS011;12618;54.386;18.394;2023-05-29T09:42:44;4.10;;;1.00;;
24439;SDS011;12618;54.386;18.394;2023-05-29T09:45:20;4.00;;;1.10;;
24439;SDS011;12618;54.386;18.394;2023-05-29T09:47:53;5.90;;;1.80;;
24439;SDS011;12618;54.386;18.394;2023-05-29T09:50:27;4.90;;;1.50;;
24439;SDS011;12618;54.386;18.394;2023-05-29T09:52:59;3.60;;;1.30;;
24439;SDS011;12618;54.386;18.394;2023-05-29T09:55:32;3.50;;;1.10;;
24439;SDS011;12618;54.386;18.394;2023-05-29T09:58:07;5.30;;;1.10;;
24439;SDS011;12618;54.386;18.394;2023-05-29T10:00:41;5.70;;;1.10;;
24439;SDS011;12618;54.386;18.394;2023-05-29T10:03:13;3.90;;;1.00;;
24439;SDS011;12618;54.386;18.394;2023-05-29T10:05:46;3.60;;;1.00;;
24439;SDS011;12618;54.386;18.394;2023-05-29T10:08:21;2.10;;;0.80;;
24439;SDS011;12618;54.386;18.394;2023-05-29T10:10:55;2.60;;;0.80;;
24439;SDS011;12618;54.386;18.394;2023-05-29T10:13:34;5.20;;;1.00;;
24439;SDS011;12618;54.386;18.394;2023-05-29T10:16:10;2.70;;;1.00;;
24439;SDS011;12618;54.386;18.394;2023-05-29T10:18:56;4.10;;;1.10;;
24439;SDS011;12618;54.386;18.394;2023-05-29T10:21:28;2.70;;;0.90;;
24439;SDS011;12618;54.386;18.394;2023-05-29T10:24:00;2.50;;;0.80;;
24439;SDS011;12618;54.386;18.394;2023-05-29T10:26:38;2.30;;;0.70;;
24439;SDS011;12618;54.386;18.394;2023-05-29T10:35:00;2.80;;;1.30;;
24439;SDS011;12618;54.386;18.394;2023-05-29T10:40:50;9.80;;;1.30;;
24439;SDS011;12618;54.386;18.394;2023-05-29T10:43:31;3.40;;;1.10;;
24439;SDS011;12618;54.386;18.394;2023-05-29T10:46:04;3.20;;;1.00;;
24439;SDS011;12618;54.386;18.394;2023-05-29T10:48:36;2.40;;;0.90;;
24439;SDS011;12618;54.386;18.394;2023-05-29T10:51:10;3.70;;;0.90;;
24439;SDS011;12618;54.386;18.394;2023-05-29T10:53:56;5.60;;;1.10;;
24439;SDS011;12618;54.386;18.394;2023-05-29T10:56:28;4.80;;;1.10;;
24439;SDS011;12618;54.386;18.394;2023-05-29T11:01:33;3.30;;;1.20;;
24439;SDS011;12618;54.386;18.394;2023-05-29T11:06:47;7.30;;;1.20;;
24439;SDS011;12618;54.386;18.394;2023-05-29T11:09:38;3.00;;;0.90;;
24439;SDS011;12618;54.386;18.394;2023-05-29T11:12:23;3.30;;;1.00;;
24439;SDS011;12618;54.386;18.394;2023-05-29T11:15:05;1.70;;;0.90;;
24439;SDS011;12618;54.386;18.394;2023-05-29T11:26:00;3.60;;;1.00;;
24439;SDS011;12618;54.386;18.394;2023-05-29T11:28:34;4.20;;;1.00;;
24439;SDS011;12618;54.386;18.394;2023-05-29T11:33:40;2.40;;;1.10;;
24439;SDS011;12618;54.386;18.394;2023-05-29T11:36:14;9.30;;;1.60;;
24439;SDS011;12618;54.386;18.394;2023-05-29T11:38:47;5.20;;;1.20;;
24439;SDS011;12618;54.386;18.394;2023-05-29T11:41:19;4.30;;;1.10;;
24439;SDS011;12618;54.386;18.394;2023-05-29T11:46:29;5.20;;;1.10;;
24439;SDS011;12618;54.386;18.394;2023-05-29T11:49:05;4.60;;;1.30;;
24439;SDS011;12618;54.386;18.394;2023-05-29T11:51:37;3.60;;;1.00;;
24439;SDS011;12618;54.386;18.394;2023-05-29T11:54:11;2.30;;;0.90;;
24439;SDS011;12618;54.386;18.394;2023-05-29T11:56:43;3.10;;;0.90;;
24439;SDS011;12618;54.386;18.394;2023-05-29T11:59:15;8.10;;;1.30;;
24439;SDS011;12618;54.386;18.394;2023-05-29T12:01:47;3.70;;;0.90;;
24439;SDS011;12618;54.386;18.394;2023-05-29T12:04:19;3.50;;;1.20;;
24439;SDS011;12618;54.386;18.394;2023-05-29T12:06:51;3.10;;;1.10;;
24439;SDS011;12618;54.386;18.394;2023-05-29T12:09:24;3.00;;;1.00;;
24439;SDS011;12618;54.386;18.394;2023-05-29T12:12:03;3.70;;;1.20;;
24439;SDS011;12618;54.386;18.394;2023-05-29T12:14:36;4.90;;;1.20;;
24439;SDS011;12618;54.386;18.394;2023-05-29T12:17:07;5.70;;;1.20;;
24439;SDS011;12618;54.386;18.394;2023-05-29T12:19:40;3.90;;;1.10;;
24439;SDS011;12618;54.386;18.394;2023-05-29T12:22:12;12.40;;;1.80;;
24439;SDS011;12618;54.386;18.394;2023-05-29T12:24:43;7.70;;;1.30;;
24439;SDS011;12618;54.386;18.394;2023-05-29T12:27:15;4.50;;;1.20;;
24439;SDS011;12618;54.386;18.394;2023-05-29T12:29:47;4.30;;;1.20;;
24439;SDS011;12618;54.386;18.394;2023-05-29T12:32:19;2.90;;;1.20;;
24439;SDS011;12618;54.386;18.394;2023-05-29T12:34:51;5.10;;;1.10;;
24439;SDS011;12618;54.386;18.394;2023-05-29T12:37:23;4.40;;;1.30;;
24439;SDS011;12618;54.386;18.394;2023-05-29T12:40:09;5.10;;;1.40;;
24439;SDS011;12618;54.386;18.394;2023-05-29T12:43:02;5.20;;;1.60;;
24439;SDS011;12618;54.386;18.394;2023-05-29T12:45:35;4.10;;;1.10;;
24439;SDS011;12618;54.386;18.394;2023-05-29T12:48:08;4.30;;;1.10;;
24439;SDS011;12618;54.386;18.394;2023-05-29T12:50:41;7.30;;;1.70;;
24439;SDS011;12618;54.386;18.394;2023-05-29T12:53:13;5.50;;;1.40;;
24439;SDS011;12618;54.386;18.394;2023-05-29T12:55:46;2.50;;;1.10;;
24439;SDS011;12618;54.386;18.394;2023-05-29T12:58:19;7.70;;;1.50;;
24439;SDS011;12618;54.386;18.394;2023-05-29T13:00:52;7.60;;;1.60;;
24439;SDS011;12618;54.386;18.394;2023-05-29T13:03:27;3.60;;;1.50;;
24439;SDS011;12618;54.386;18.394;2023-05-29T13:05:59;8.70;;;1.60;;
24439;SDS011;12618;54.386;18.394;2023-05-29T13:08:31;4.90;;;1.20;;
24439;SDS011;12618;54.386;18.394;2023-05-29T13:11:03;5.40;;;1.50;;
24439;SDS011;12618;54.386;18.394;2023-05-29T13:13:34;5.00;;;1.60;;
24439;SDS011;12618;54.386;18.394;2023-05-29T13:16:06;5.00;;;1.40;;
24439;SDS011;12618;54.386;18.394;2023-05-29T13:18:38;12.80;;;1.80;;
24439;SDS011;12618;54.386;18.394;2023-05-29T13:21:10;5.00;;;1.50;;
24439;SDS011;12618;54.386;18.394;2023-05-29T13:23:42;4.60;;;1.40;;
24439;SDS011;12618;54.386;18.394;2023-05-29T13:26:14;4.10;;;1.20;;
24439;SDS011;12618;54.386;18.394;2023-05-29T13:28:45;4.70;;;1.60;;
24439;SDS011;12618;54.386;18.394;2023-05-29T13:31:17;5.40;;;1.40;;
24439;SDS011;12618;54.386;18.394;2023-05-29T13:33:49;5.20;;;1.20;;
24439;SDS011;12618;54.386;18.394;2023-05-29T13:36:21;7.60;;;1.50;;
24439;SDS011;12618;54.386;18.394;2023-05-29T13:38:53;6.40;;;1.50;;
24439;SDS011;12618;54.386;18.394;2023-05-29T13:41:25;4.00;;;1.40;;
24439;SDS011;12618;54.386;18.394;2023-05-29T13:43:57;6.50;;;1.80;;
24439;SDS011;12618;54.386;18.394;2023-05-29T13:46:29;5.70;;;1.50;;
24439;SDS011;12618;54.386;18.394;2023-05-29T13:49:01;3.40;;;1.40;;
24439;SDS011;12618;54.386;18.394;2023-05-29T13:51:33;4.20;;;1.20;;
24439;SDS011;12618;54.386;18.394;2023-05-29T13:56:38;5.30;;;1.40;;
24439;SDS011;12618;54.386;18.394;2023-05-29T13:59:10;12.00;;;2.30;;
24439;SDS011;12618;54.386;18.394;2023-05-29T14:01:42;5.10;;;1.20;;
24439;SDS011;12618;54.386;18.394;2023-05-29T14:04:15;4.50;;;1.60;;
24439;SDS011;12618;54.386;18.394;2023-05-29T14:06:47;6.90;;;1.80;;
24439;SDS011;12618;54.386;18.394;2023-05-29T14:09:19;5.10;;;1.60;;
24439;SDS011;12618;54.386;18.394;2023-05-29T14:11:58;9.10;;;1.60;;
24439;SDS011;12618;54.386;18.394;2023-05-29T14:14:32;33.50;;;3.90;;
24439;SDS011;12618;54.386;18.394;2023-05-29T14:17:05;9.20;;;1.50;;
24439;SDS011;12618;54.386;18.394;2023-05-29T14:19:37;6.60;;;1.90;;
24439;SDS011;12618;54.386;18.394;2023-05-29T14:22:09;5.80;;;1.70;;
24439;SDS011;12618;54.386;18.394;2023-05-29T14:24:42;5.70;;;1.60;;
24439;SDS011;12618;54.386;18.394;2023-05-29T14:27:13;3.90;;;1.40;;
24439;SDS011;12618;54.386;18.394;2023-05-29T14:29:46;3.60;;;1.50;;
24439;SDS011;12618;54.386;18.394;2023-05-29T14:32:18;4.70;;;1.40;;
24439;SDS011;12618;54.386;18.394;2023-05-29T14:34:49;4.80;;;1.40;;
24439;SDS011;12618;54.386;18.394;2023-05-29T14:37:22;5.80;;;1.60;;
24439;SDS011;12618;54.386;18.394;2023-05-29T14:39:54;4.80;;;1.40;;
24439;SDS011;12618;54.386;18.394;2023-05-29T14:42:26;8.10;;;1.60;;
24439;SDS011;12618;54.386;18.394;2023-05-29T14:44:58;5.70;;;1.40;;
24439;SDS011;12618;54.386;18.394;2023-05-29T14:47:29;6.10;;;1.70;;
24439;SDS011;12618;54.386;18.394;2023-05-29T14:50:01;6.10;;;1.30;;
24439;SDS011;12618;54.386;18.394;2023-05-29T14:52:33;9.50;;;1.70;;
24439;SDS011;12618;54.386;18.394;2023-05-29T14:55:05;7.00;;;1.50;;
24439;SDS011;12618;54.386;18.394;2023-05-29T14:57:37;5.40;;;1.40;;
24439;SDS011;12618;54.386;18.394;2023-05-29T15:00:09;8.40;;;1.70;;
24439;SDS011;12618;54.386;18.394;2023-05-29T15:02:41;4.90;;;1.40;;
24439;SDS011;12618;54.386;18.394;2023-05-29T15:05:13;5.00;;;1.40;;
24439;SDS011;12618;54.386;18.394;2023-05-29T15:07:45;9.20;;;1.70;;
24439;SDS011;12618;54.386;18.394;2023-05-29T15:10:17;6.70;;;1.50;;
24439;SDS011;12618;54.386;18.394;2023-05-29T15:12:52;8.50;;;1.90;;
24439;SDS011;12618;54.386;18.394;2023-05-29T15:15:31;6.40;;;1.70;;
24439;SDS011;12618;54.386;18.394;2023-05-29T15:18:17;7.30;;;1.80;;
24439;SDS011;12618;54.386;18.394;2023-05-29T15:20:49;5.20;;;1.60;;
24439;SDS011;12618;54.386;18.394;2023-05-29T15:23:21;6.40;;;1.90;;
24439;SDS011;12618;54.386;18.394;2023-05-29T15:25:54;19.90;;;3.20;;
24439;SDS011;12618;54.386;18.394;2023-05-29T15:28:27;6.10;;;1.60;;
24439;SDS011;12618;54.386;18.394;2023-05-29T15:31:00;4.70;;;1.40;;
24439;SDS011;12618;54.386;18.394;2023-05-29T15:33:32;5.70;;;1.80;;
24439;SDS011;12618;54.386;18.394;2023-05-29T15:36:04;9.30;;;1.70;;
24439;SDS011;12618;54.386;18.394;2023-05-29T15:38:37;9.50;;;1.90;;
24439;SDS011;12618;54.386;18.394;2023-05-29T15:41:09;10.80;;;2.70;;
24439;SDS011;12618;54.386;18.394;2023-05-29T15:43:40;7.90;;;1.70;;
24439;SDS011;12618;54.386;18.394;2023-05-29T15:46:13;5.60;;;1.70;;
24439;SDS011;12618;54.386;18.394;2023-05-29T15:48:45;7.40;;;2.20;;
24439;SDS011;12618;54.386;18.394;2023-05-29T15:51:17;7.50;;;2.00;;